createdAt,value
2022-11-20T00:01:25.101Z,2.10
2022-11-20T00:03:54.363Z,2.10
2022-11-20T00:06:22.948Z,2.10
2022-11-20T00:08:50.718Z,2.20
2022-11-20T00:11:24.573Z,2.20
2022-11-20T00:13:55.523Z,2.20
2022-11-20T00:16:25.627Z,2.22
2022-11-20T00:18:54.208Z,2.20
2022-11-20T00:21:24.874Z,2.20
2022-11-20T00:23:55.475Z,2.20
2022-11-20T00:26:25.371Z,2.22
2022-11-20T00:28:56.161Z,2.28
2022-11-20T00:31:23.561Z,2.28
2022-11-20T00:33:50.932Z,2.30
2022-11-20T00:36:24.659Z,2.30
2022-11-20T00:38:57.739Z,2.34
2022-11-20T00:41:27.099Z,2.38
2022-11-20T00:43:56.173Z,2.40
2022-11-20T00:46:26.413Z,2.42
2022-11-20T00:48:53.652Z,2.50
2022-11-20T00:51:23.977Z,2.50
2022-11-20T00:53:50.811Z,2.50
2022-11-20T00:56:20.719Z,2.60
2022-11-20T00:58:49.828Z,2.64
2022-11-20T01:01:25.537Z,2.70
2022-11-20T01:03:55.460Z,2.80
2022-11-20T01:06:31.904Z,2.86
2022-11-20T01:09:03.685Z,2.90
2022-11-20T01:11:34.794Z,3.00
2022-11-20T01:14:04.235Z,3.00
2022-11-20T01:16:35.541Z,3.00
2022-11-20T01:19:06.734Z,2.94
2022-11-20T01:21:37.972Z,2.90
2022-11-20T01:24:08.884Z,2.78
2022-11-20T01:26:41.070Z,2.70
2022-11-20T01:29:15.885Z,2.60
2022-11-20T01:31:43.916Z,2.60
2022-11-20T01:34:15.858Z,2.60
2022-11-20T01:36:44.234Z,2.70
2022-11-20T01:39:24.231Z,2.70
2022-11-20T01:42:12.695Z,2.74
2022-11-20T01:44:53.088Z,2.80
2022-11-20T01:47:37.614Z,2.80
2022-11-20T01:50:19.832Z,2.72
2022-11-20T01:52:57.625Z,2.70
2022-11-20T01:55:32.138Z,2.66
2022-11-20T01:58:00.758Z,2.60
2022-11-20T02:00:27.910Z,2.60
2022-11-20T02:03:03.751Z,2.50
2022-11-20T02:05:38.491Z,2.58
2022-11-20T02:08:08.125Z,2.60
2022-11-20T02:10:35.956Z,2.60
2022-11-20T02:13:22.567Z,2.70
2022-11-20T02:15:50.638Z,2.80
2022-11-20T02:18:19.844Z,2.80
2022-11-20T02:20:51.513Z,2.94
2022-11-20T02:23:45.457Z,2.96
2022-11-20T02:26:16.696Z,3.00
2022-11-20T02:28:43.659Z,3.00
2022-11-20T02:31:10.623Z,3.00
2022-11-20T02:33:37.365Z,3.00
2022-11-20T02:36:04.715Z,2.90
2022-11-20T02:38:31.625Z,2.80
2022-11-20T02:40:58.484Z,2.78
2022-11-20T02:43:25.328Z,2.70
2022-11-20T02:45:52.170Z,2.70
2022-11-20T02:48:19.051Z,2.70
2022-11-20T02:50:45.855Z,2.64
2022-11-20T02:53:12.843Z,2.70
2022-11-20T02:55:39.821Z,2.72
2022-11-20T02:58:06.677Z,2.76
2022-11-20T03:00:33.663Z,2.72
2022-11-20T03:03:00.483Z,2.70
2022-11-20T03:05:27.362Z,2.60
2022-11-20T03:07:54.109Z,2.60
2022-11-20T03:10:20.904Z,2.60
2022-11-20T03:12:47.634Z,2.60
2022-11-20T03:15:14.585Z,2.58
2022-11-20T03:17:41.321Z,2.60
2022-11-20T03:20:10.114Z,2.54
2022-11-20T03:22:36.953Z,2.52
2022-11-20T03:25:04.393Z,2.60
2022-11-20T03:27:36.059Z,2.60
2022-11-20T03:30:03.714Z,2.70
2022-11-20T03:32:30.671Z,2.80
2022-11-20T03:34:57.450Z,2.80
2022-11-20T03:37:24.173Z,2.80
2022-11-20T03:39:50.994Z,2.90
2022-11-20T03:42:36.459Z,2.90
2022-11-20T03:45:03.920Z,2.90
2022-11-20T03:47:30.679Z,2.92
2022-11-20T03:49:57.411Z,2.92
2022-11-20T03:52:24.250Z,2.90
2022-11-20T03:54:51.048Z,3.00
2022-11-20T03:57:17.937Z,2.96
2022-11-20T03:59:44.777Z,3.00
2022-11-20T04:02:11.572Z,3.10
2022-11-20T04:04:38.463Z,3.10
2022-11-20T04:07:05.340Z,3.10
2022-11-20T04:09:32.133Z,3.20
2022-11-20T04:11:58.895Z,3.20
2022-11-20T04:14:25.863Z,3.20
2022-11-20T04:16:52.677Z,3.20
2022-11-20T04:19:19.764Z,3.22
2022-11-20T04:21:46.751Z,3.30
2022-11-20T04:24:13.873Z,3.30
2022-11-20T04:26:41.380Z,3.30
2022-11-20T04:29:12.363Z,3.30
2022-11-20T04:31:39.359Z,3.40
2022-11-20T04:34:08.169Z,3.46
2022-11-20T04:36:36.084Z,3.50
2022-11-20T04:39:07.196Z,3.50
2022-11-20T04:41:37.593Z,3.50
2022-11-20T04:44:06.749Z,3.50
2022-11-20T04:46:41.090Z,3.56
2022-11-20T04:49:09.320Z,3.60
2022-11-20T04:51:36.632Z,3.60
2022-11-20T04:54:03.736Z,3.60
2022-11-20T04:56:30.697Z,3.60
2022-11-20T04:59:02.811Z,3.50
2022-11-20T05:01:29.868Z,3.50
2022-11-20T05:03:56.877Z,3.50
2022-11-20T05:06:24.178Z,3.50
2022-11-20T05:08:51.546Z,3.50
2022-11-20T05:11:22.116Z,3.60
2022-11-20T05:13:50.796Z,3.60
2022-11-20T05:16:22.277Z,3.66
2022-11-20T05:18:50.416Z,3.70
2022-11-20T05:21:18.279Z,3.80
2022-11-20T05:23:46.676Z,3.80
2022-11-20T05:26:18.678Z,3.80
2022-11-20T05:28:46.706Z,3.86
2022-11-20T05:31:26.181Z,3.90
2022-11-20T05:33:54.034Z,3.90
2022-11-20T05:36:21.053Z,3.80
2022-11-20T05:38:50.605Z,3.72
2022-11-20T05:41:21.671Z,3.70
2022-11-20T05:43:50.824Z,3.70
2022-11-20T05:46:27.808Z,3.60
2022-11-20T05:48:57.804Z,3.60
2022-11-20T05:51:25.902Z,3.60
2022-11-20T05:53:52.584Z,3.66
2022-11-20T05:56:22.961Z,3.76
2022-11-20T05:58:50.799Z,3.74
2022-11-20T06:01:26.559Z,3.80
2022-11-20T06:03:54.924Z,3.80
2022-11-20T06:06:22.501Z,3.80
2022-11-20T06:08:49.658Z,3.80
2022-11-20T06:11:17.923Z,3.80
2022-11-20T06:13:45.849Z,3.80
2022-11-20T06:16:16.291Z,3.80
2022-11-20T06:18:43.075Z,3.80
2022-11-20T06:21:16.115Z,3.80
2022-11-20T06:23:44.097Z,3.80
2022-11-20T06:26:23.426Z,3.80
2022-11-20T06:28:51.739Z,3.80
2022-11-20T06:31:22.570Z,3.80
2022-11-20T06:33:50.003Z,3.70
2022-11-20T06:36:20.824Z,3.70
2022-11-20T06:38:48.089Z,3.74
2022-11-20T06:41:19.481Z,3.78
2022-11-20T06:43:46.700Z,3.80
2022-11-20T06:46:18.475Z,3.80
2022-11-20T06:48:46.805Z,3.84
2022-11-20T06:51:14.691Z,3.90
2022-11-20T06:53:41.617Z,3.90
2022-11-20T06:56:09.146Z,4.00
2022-11-20T06:58:37.191Z,4.04
2022-11-20T07:01:12.194Z,4.10
2022-11-20T07:03:40.498Z,4.30
2022-11-20T07:06:08.239Z,4.30
2022-11-20T07:08:35.603Z,4.30
2022-11-20T07:11:06.143Z,4.38
2022-11-20T07:13:34.010Z,4.40
2022-11-20T07:16:07.738Z,4.40
2022-11-20T07:18:34.954Z,4.44
2022-11-20T07:21:05.065Z,4.50
2022-11-20T07:23:32.309Z,4.50
2022-11-20T07:26:04.095Z,4.50
2022-11-20T07:28:30.912Z,4.50
2022-11-20T07:30:57.752Z,4.50
2022-11-20T07:33:24.838Z,4.56
2022-11-20T07:35:51.705Z,4.60
2022-11-20T07:38:18.449Z,4.70
2022-11-20T07:40:45.284Z,4.80
2022-11-20T07:43:12.271Z,4.84
2022-11-20T07:45:39.318Z,4.90
2022-11-20T07:48:06.367Z,4.96
2022-11-20T07:50:33.225Z,5.00
2022-11-20T07:53:05.635Z,5.04
2022-11-20T07:55:33.782Z,5.10
2022-11-20T07:58:00.744Z,5.10
2022-11-20T08:00:28.495Z,5.30
2022-11-20T08:02:55.384Z,5.30
2022-11-20T08:05:22.452Z,5.40
2022-11-20T08:07:49.578Z,5.50
2022-11-20T08:10:17.260Z,5.60
2022-11-20T08:13:11.139Z,5.64
2022-11-20T08:15:40.416Z,5.80
2022-11-20T08:20:59.265Z,5.98
2022-11-20T08:23:26.360Z,6.00
2022-11-20T08:25:53.213Z,6.00
2022-11-20T08:28:22.322Z,6.06
2022-11-20T08:30:51.426Z,6.10
2022-11-20T08:33:19.656Z,6.10
2022-11-20T08:35:46.953Z,6.20
2022-11-20T08:38:13.991Z,6.20
2022-11-20T08:40:40.753Z,6.24
2022-11-20T08:43:07.683Z,6.30
2022-11-20T08:45:35.366Z,6.30
2022-11-20T08:48:04.327Z,6.40
2022-11-20T08:50:33.491Z,6.50
2022-11-20T08:53:06.008Z,6.40
2022-11-20T08:55:33.669Z,6.40
2022-11-20T08:58:05.502Z,6.40
2022-11-20T09:00:33.493Z,6.44
2022-11-20T09:03:02.280Z,6.50
2022-11-20T09:05:29.342Z,6.70
2022-11-20T09:08:00.040Z,6.62
2022-11-20T09:10:28.798Z,6.70
2022-11-20T09:12:57.012Z,6.70
2022-11-20T09:15:24.960Z,6.80
2022-11-20T09:17:52.789Z,6.90
2022-11-20T09:20:19.983Z,6.92
2022-11-20T09:22:46.914Z,7.00
2022-11-20T09:25:13.762Z,7.10
2022-11-20T09:27:42.478Z,7.14
2022-11-20T09:30:10.221Z,7.20
2022-11-20T09:32:37.163Z,7.20
2022-11-20T09:35:05.031Z,7.20
2022-11-20T09:37:31.865Z,7.10
2022-11-20T09:39:58.622Z,7.10
2022-11-20T09:42:57.710Z,7.10
2022-11-20T09:45:24.484Z,7.12
2022-11-20T09:47:55.834Z,7.10
2022-11-20T09:50:55.974Z,7.00
2022-11-20T09:53:38.007Z,6.80
2022-11-20T09:56:06.088Z,6.70
2022-11-20T09:58:36.732Z,6.60
2022-11-20T10:01:14.663Z,6.60
2022-11-20T10:04:03.976Z,6.40
2022-11-20T10:06:42.708Z,6.50
2022-11-20T10:09:12.171Z,6.30
2022-11-20T10:12:23.707Z,6.10
2022-11-20T10:15:21.085Z,6.02
2022-11-20T10:17:56.608Z,6.00
2022-11-20T10:21:00.935Z,6.00
2022-11-20T10:24:02.825Z,6.08
2022-11-20T10:27:12.916Z,6.18
2022-11-20T10:29:46.767Z,6.26
2022-11-20T10:32:21.590Z,6.30
2022-11-20T10:35:01.235Z,6.30
2022-11-20T10:37:32.316Z,6.38
2022-11-20T10:40:36.284Z,6.40
2022-11-20T10:43:16.083Z,6.50
2022-11-20T10:46:00.086Z,6.50
2022-11-20T10:48:29.396Z,6.60
2022-11-20T10:51:23.452Z,6.68
2022-11-20T10:54:20.609Z,6.72
2022-11-20T10:56:53.034Z,6.94
2022-11-20T11:00:00.772Z,7.00
2022-11-20T11:02:35.713Z,7.14
2022-11-20T11:05:18.533Z,7.20
2022-11-20T11:07:49.000Z,7.30
2022-11-20T11:10:42.903Z,7.38
2022-11-20T11:13:22.998Z,7.50
2022-11-20T11:15:49.906Z,7.60
2022-11-20T11:18:35.328Z,7.70
2022-11-20T11:21:06.068Z,7.80
2022-11-20T11:23:37.902Z,7.90
2022-11-20T11:26:21.047Z,7.88
2022-11-20T11:29:06.100Z,7.80
2022-11-20T11:31:35.989Z,7.78
2022-11-20T11:34:18.055Z,7.70
2022-11-20T11:36:59.538Z,7.70
2022-11-20T11:39:30.358Z,7.80
2022-11-20T11:41:59.668Z,7.90
2022-11-20T11:44:51.107Z,8.00
2022-11-20T11:47:58.331Z,8.18
2022-11-20T11:50:28.689Z,8.38
2022-11-20T11:53:18.755Z,8.50
2022-11-20T11:55:50.632Z,8.70
2022-11-20T11:58:49.398Z,8.86
2022-11-20T12:01:50.905Z,8.96
2022-11-20T12:04:29.782Z,9.10
2022-11-20T12:07:38.995Z,9.20
2022-11-20T12:09:59.617Z,9.18
2022-11-20T12:12:37.921Z,9.00
2022-11-20T12:15:10.909Z,9.00
2022-11-20T12:17:37.725Z,8.96
2022-11-20T12:20:14.942Z,9.00
2022-11-20T12:22:55.814Z,9.10
2022-11-20T12:25:28.485Z,9.20
2022-11-20T12:28:13.121Z,9.30
2022-11-20T12:31:03.129Z,9.40
2022-11-20T12:34:11.595Z,9.50
2022-11-20T12:36:53.640Z,9.68
2022-11-20T12:39:42.043Z,9.76
2022-11-20T12:42:38.910Z,9.80
2022-11-20T12:45:29.543Z,9.90
2022-11-20T12:48:24.546Z,9.90
2022-11-20T12:51:16.468Z,9.90
2022-11-20T12:54:24.378Z,9.94
2022-11-20T12:57:12.382Z,10.00
2022-11-20T12:59:59.636Z,10.08
2022-11-20T13:02:57.403Z,10.10
2022-11-20T13:05:42.218Z,10.10
2022-11-20T13:08:40.958Z,10.10
2022-11-20T13:11:07.658Z,10.10
2022-11-20T13:14:17.842Z,10.04
2022-11-20T13:17:22.986Z,10.10
2022-11-20T13:19:57.100Z,10.10
2022-11-20T13:22:48.080Z,10.12
2022-11-20T13:25:25.220Z,10.32
2022-11-20T13:27:53.438Z,10.50
2022-11-20T13:30:26.340Z,10.60
2022-11-20T13:32:54.980Z,10.50
2022-11-20T13:35:31.102Z,10.60
2022-11-20T13:38:09.823Z,10.52
2022-11-20T13:40:56.120Z,10.50
2022-11-20T13:43:40.818Z,10.40
2022-11-20T13:46:10.697Z,10.30
2022-11-20T13:48:48.392Z,10.20
2022-11-20T13:52:03.056Z,10.14
2022-11-20T13:55:07.189Z,10.10
2022-11-20T13:57:49.270Z,10.00
2022-11-20T14:00:25.902Z,9.90
2022-11-20T14:03:16.529Z,9.90
2022-11-20T14:06:04.058Z,9.82
2022-11-20T14:08:43.351Z,9.80
2022-11-20T14:11:41.792Z,9.70
2022-11-20T14:14:18.128Z,9.60
2022-11-20T14:16:45.513Z,9.50
2022-11-20T14:19:31.638Z,9.40
2022-11-20T14:22:25.474Z,9.30
2022-11-20T14:25:15.358Z,9.20
2022-11-20T14:27:45.772Z,9.10
2022-11-20T14:30:29.022Z,9.00
2022-11-20T14:33:02.323Z,9.00
2022-11-20T14:35:35.186Z,8.96
2022-11-20T14:38:04.063Z,8.90
2022-11-20T14:40:36.626Z,8.90
2022-11-20T14:43:38.761Z,8.90
2022-11-20T14:46:10.894Z,8.90
2022-11-20T14:48:51.945Z,8.90
2022-11-20T14:51:36.155Z,8.90
2022-11-20T14:54:18.007Z,8.90
2022-11-20T14:57:03.765Z,8.90
2022-11-20T14:59:34.449Z,8.90
2022-11-20T15:02:08.049Z,8.80
2022-11-20T15:04:46.757Z,8.80
2022-11-20T15:07:30.018Z,8.80
2022-11-20T15:10:05.302Z,8.80
2022-11-20T15:12:35.766Z,8.70
2022-11-20T15:15:06.294Z,8.60
2022-11-20T15:17:39.148Z,8.50
2022-11-20T15:20:16.876Z,8.40
2022-11-20T15:22:43.900Z,8.30
2022-11-20T15:25:16.401Z,8.30
2022-11-20T15:27:45.057Z,8.30
2022-11-20T15:30:20.291Z,8.30
2022-11-20T15:32:48.801Z,8.30
2022-11-20T15:35:17.007Z,8.20
2022-11-20T15:37:44.305Z,8.20
2022-11-20T15:40:12.379Z,8.20
2022-11-20T15:42:39.025Z,8.20
2022-11-20T15:45:06.388Z,8.20
2022-11-20T15:47:36.077Z,8.10
2022-11-20T15:50:03.843Z,8.10
2022-11-20T15:52:36.357Z,8.02
2022-11-20T15:55:11.810Z,8.04
2022-11-20T15:57:38.554Z,8.08
2022-11-20T16:00:06.686Z,8.00
2022-11-20T16:02:37.700Z,8.00
2022-11-20T16:05:10.881Z,8.00
2022-11-20T16:07:37.656Z,8.00
2022-11-20T16:10:05.539Z,8.00
2022-11-20T16:12:51.398Z,8.00
2022-11-20T16:15:37.080Z,8.00
2022-11-20T16:18:04.204Z,8.00
2022-11-20T16:20:31.073Z,8.00
2022-11-20T16:22:58.017Z,8.00
2022-11-20T16:25:24.751Z,8.00
2022-11-20T16:27:51.508Z,8.00
2022-11-20T16:30:18.376Z,7.98
2022-11-20T16:32:45.183Z,8.00
2022-11-20T16:35:12.639Z,7.90
2022-11-20T16:37:40.504Z,7.90
2022-11-20T16:40:08.158Z,7.80
2022-11-20T16:42:36.859Z,7.80
2022-11-20T16:45:05.642Z,7.82
2022-11-20T16:47:36.257Z,7.80
2022-11-20T16:50:05.626Z,7.80
2022-11-20T16:52:32.636Z,7.88
2022-11-20T16:54:59.868Z,7.90
2022-11-20T16:57:33.290Z,7.90
2022-11-20T17:00:02.547Z,7.92
2022-11-20T17:02:29.616Z,8.00
2022-11-20T17:04:56.412Z,8.00
2022-11-20T17:07:24.242Z,8.00
2022-11-20T17:09:51.265Z,8.00
2022-11-20T17:12:18.151Z,8.04
2022-11-20T17:14:45.316Z,8.02
2022-11-20T17:17:12.696Z,8.08
2022-11-20T17:19:40.122Z,8.10
2022-11-20T17:22:08.036Z,8.10
2022-11-20T17:24:35.124Z,8.10
2022-11-20T17:27:02.868Z,8.10
2022-11-20T17:29:31.534Z,8.10
2022-11-20T17:31:59.038Z,8.10
2022-11-20T17:34:26.066Z,8.10
2022-11-20T17:36:54.107Z,8.10
2022-11-20T17:39:21.252Z,8.10
2022-11-20T17:42:08.783Z,8.10
2022-11-20T17:44:36.724Z,8.16
2022-11-20T17:47:05.048Z,8.18
2022-11-20T17:49:32.025Z,8.10
2022-11-20T17:51:59.431Z,8.10
2022-11-20T17:54:26.375Z,8.16
2022-11-20T17:57:12.046Z,8.12
2022-11-20T17:59:39.206Z,8.18
2022-11-20T18:02:06.166Z,8.12
2022-11-20T18:04:33.051Z,8.16
2022-11-20T18:06:59.943Z,8.12
2022-11-20T18:09:26.958Z,8.12
2022-11-20T18:11:53.831Z,8.18
2022-11-20T18:14:29.274Z,8.10
2022-11-20T18:17:00.203Z,8.12
2022-11-20T18:19:32.871Z,8.16
2022-11-20T18:22:04.126Z,8.18
2022-11-20T18:24:33.127Z,8.20
2022-11-20T18:27:00.261Z,8.20
2022-11-20T18:29:28.405Z,8.20
2022-11-20T18:31:55.457Z,8.20
2022-11-20T18:34:22.865Z,8.20
2022-11-20T18:36:49.958Z,8.22
2022-11-20T18:39:17.748Z,8.28
2022-11-20T18:42:03.349Z,8.28
2022-11-20T18:44:55.005Z,8.30
2022-11-20T18:47:27.853Z,8.30
2022-11-20T18:49:58.053Z,8.30
2022-11-20T18:52:33.959Z,8.30
2022-11-20T18:55:06.293Z,8.30
2022-11-20T18:57:33.601Z,8.30
2022-11-20T19:00:06.367Z,8.30
2022-11-20T19:02:40.917Z,8.30
2022-11-20T19:05:11.638Z,8.30
2022-11-20T19:07:38.625Z,8.32
2022-11-20T19:10:06.809Z,8.30
2022-11-20T19:12:33.549Z,8.30
2022-11-20T19:15:00.418Z,8.40
2022-11-20T19:17:27.220Z,8.30
2022-11-20T19:19:55.176Z,8.30
2022-11-20T19:22:22.451Z,8.30
2022-11-20T19:24:50.320Z,8.30
2022-11-20T19:27:17.271Z,8.20
2022-11-20T19:29:44.188Z,8.20
2022-11-20T19:32:11.463Z,8.20
2022-11-20T19:34:38.305Z,8.20
2022-11-20T19:37:05.388Z,8.20
2022-11-20T19:39:32.404Z,8.20
2022-11-20T19:41:59.241Z,8.20
2022-11-20T19:44:26.136Z,8.20
2022-11-20T19:46:53.146Z,8.20
2022-11-20T19:49:20.176Z,8.20
2022-11-20T19:51:51.125Z,8.20
2022-11-20T19:54:18.379Z,8.20
2022-11-20T19:56:47.292Z,8.20
2022-11-20T19:59:14.532Z,8.20
2022-11-20T20:01:41.566Z,8.18
2022-11-20T20:04:08.910Z,8.10
2022-11-20T20:06:38.957Z,8.10
2022-11-20T20:09:10.431Z,8.10
2022-11-20T20:11:37.935Z,8.00
2022-11-20T20:14:08.673Z,8.00
2022-11-20T20:16:36.323Z,7.94
2022-11-20T20:19:05.538Z,7.90
2022-11-20T20:21:35.573Z,7.80
2022-11-20T20:24:03.649Z,7.70
2022-11-20T20:26:31.993Z,7.60
2022-11-20T20:29:01.086Z,7.60
2022-11-20T20:31:31.112Z,7.50
2022-11-20T20:33:58.664Z,7.40
2022-11-20T20:36:26.769Z,7.38
2022-11-20T20:38:54.850Z,7.30
2022-11-20T20:41:27.159Z,7.30
2022-11-20T20:44:13.269Z,7.20
2022-11-20T20:46:41.560Z,7.10
2022-11-20T20:49:09.454Z,7.00
2022-11-20T20:51:36.772Z,7.00
2022-11-20T20:54:05.094Z,6.90
2022-11-20T20:56:32.136Z,6.90
2022-11-20T20:58:59.029Z,6.80
2022-11-20T21:01:29.055Z,6.80
2022-11-20T21:03:57.531Z,6.80
2022-11-20T21:06:25.298Z,6.80
2022-11-20T21:08:52.463Z,6.86
2022-11-20T21:11:20.920Z,6.90
2022-11-20T21:13:49.616Z,6.90
2022-11-20T21:16:19.436Z,6.90
2022-11-20T21:18:46.507Z,6.90
2022-11-20T21:21:34.573Z,6.90
2022-11-20T21:24:02.680Z,6.90
2022-11-20T21:26:29.375Z,6.90
2022-11-20T21:28:57.559Z,6.90
2022-11-20T21:31:26.990Z,6.90
2022-11-20T21:33:56.970Z,6.90
2022-11-20T21:36:29.906Z,6.90
2022-11-20T21:38:59.550Z,6.90
2022-11-20T21:41:30.414Z,6.90
2022-11-20T21:46:46.768Z,6.90
2022-11-20T21:49:15.364Z,6.92
2022-11-20T21:51:42.233Z,6.90
2022-11-20T21:54:10.358Z,6.80
2022-11-20T21:56:37.097Z,6.80
2022-11-20T21:59:03.940Z,6.80
2022-11-20T22:01:31.564Z,6.70
2022-11-20T22:04:02.667Z,6.60
2022-11-20T22:06:34.716Z,6.60
2022-11-20T22:09:03.145Z,6.54
2022-11-20T22:11:30.401Z,6.58
2022-11-20T22:14:16.345Z,6.52
2022-11-20T22:16:43.610Z,6.60
2022-11-20T22:19:10.417Z,6.60
2022-11-20T22:21:40.348Z,6.60
2022-11-20T22:24:15.172Z,6.60
2022-11-20T22:26:42.312Z,6.64
2022-11-20T22:29:18.471Z,6.70
2022-11-20T22:31:45.277Z,6.76
2022-11-20T22:34:13.895Z,6.80
2022-11-20T22:36:42.034Z,6.80
2022-11-20T22:39:08.758Z,6.80
2022-11-20T22:41:35.657Z,6.80
2022-11-20T22:44:06.546Z,6.80
2022-11-20T22:46:36.802Z,6.70
2022-11-20T22:49:08.881Z,6.64
2022-11-20T22:51:39.613Z,6.60
2022-11-20T22:54:06.912Z,6.52
2022-11-20T22:56:34.313Z,6.50
2022-11-20T22:59:01.374Z,6.46
2022-11-20T23:01:34.703Z,6.40
2022-11-20T23:04:05.592Z,6.40
2022-11-20T23:06:34.468Z,6.30
2022-11-20T23:09:03.378Z,6.30
2022-11-20T23:11:31.964Z,6.30
2022-11-20T23:14:03.648Z,6.20
2022-11-20T23:16:32.536Z,6.20
2022-11-20T23:19:07.352Z,6.20
2022-11-20T23:21:37.165Z,6.20
2022-11-20T23:24:05.239Z,6.20
2022-11-20T23:26:34.300Z,6.28
2022-11-20T23:29:01.943Z,6.36
2022-11-20T23:31:32.162Z,6.40
2022-11-20T23:33:59.964Z,6.40
2022-11-20T23:36:27.057Z,6.50
2022-11-20T23:38:53.805Z,6.50
2022-11-20T23:41:20.619Z,6.60
2022-11-20T23:43:47.651Z,6.60
2022-11-20T23:46:16.729Z,6.60
2022-11-20T23:48:45.602Z,6.60
2022-11-20T23:51:13.509Z,6.60
2022-11-20T23:53:40.672Z,6.68
2022-11-20T23:56:08.326Z,6.62
2022-11-20T23:58:38.735Z,6.68
